Algoma Guardian — CFK9698 — position and weather

sailwx.info

Track history (hours):
 
Tides and Currents Weather Stations Pressure Air Temp Water Temp Dewpoint Dewpoint Depression Visibility Wind Speed Wind Dir Waves Ship Positions

Algoma Guardian

Last reported at 2017-Sep-19 18:00 UTC. Time now 2017-Sep-21 04:59 UTC.
Position N 48°30' W 064°00'.

Length 222 m; draft 8.1 m.

Type: Cargo ship. MMSI: 316018031.

Wind from 210 at 20 knots

Barometer 1016.7 mb
Air temperature 16.0 ° C
Visibility: greater than 0.1 NM

Date/timePositionNaut miles runAvg speedWind from/ knotsBaromVisibWave heightAir tempDewpointWater temp
2017-Sep-19 18:00N 48°30' W 064°00'26610.6 210 / 201016.7 0.1 16.0
2017-Sep-18 17:00N 47°24' W 070°24'172 4.5 100 / 101017.2 5.4 15.0
2017-Sep-17 02:29N 45°30' W 073°31'1 0.8
2017-Sep-17 01:48N 45°30' W 073°31'2 1.7
2017-Sep-17 00:46N 45°28' W 073°30'1 3.5
2017-Sep-17 00:31N 45°27' W 073°30'3 4.4
2017-Sep-16 23:55N 45°25' W 073°32'2 3.8
2017-Sep-16 23:30N 45°24' W 073°34'0 0.3
2017-Sep-16 23:00N 45°24' W 073°34'1 2.4
2017-Sep-16 22:30N 45°24' W 073°36'3 5.5
2017-Sep-16 22:00N 45°25' W 073°40'3 5.7
2017-Sep-16 21:30N 45°24' W 073°44'510.8
2017-Sep-16 21:00N 45°22' W 073°50'4 8.3
2017-Sep-16 20:30N 45°19' W 073°55'0 0.4
2017-Sep-16 20:01N 45°19' W 073°55'1 1.5
2017-Sep-16 19:31N 45°18' W 073°56'0 0.3
2017-Sep-16 19:01N 45°18' W 073°56'1 2.5
2017-Sep-16 18:27N 45°17' W 073°57'3 5.8
2017-Sep-16 17:59N 45°15' W 073°59'2010.3
2017-Sep-16 16:02N 45°08' W 074°25'111.6
2017-Sep-16 15:58N 45°08' W 074°27'  
2017-Sep-13 19:02N 45°26' W 083°14'013.0
2017-Sep-13 19:00N 45°27' W 083°14'613.1
2017-Sep-13 18:30N 45°31' W 083°20'713.3
2017-Sep-13 18:00N 45°36' W 083°27'713.4
2017-Sep-13 17:30N 45°41' W 083°33'713.4
2017-Sep-13 16:59N 45°47' W 083°40'613.4
2017-Sep-13 16:30N 45°51' W 083°46'713.2
2017-Sep-13 15:59N 45°56' W 083°53'611.5
2017-Sep-13 15:26N 46°02' W 083°56'511.0
2017-Sep-13 14:57N 46°06' W 084°01'511.3
2017-Sep-13 14:30N 46°10' W 084°05'4 8.6
2017-Sep-13 14:00N 46°13' W 084°10'5 6.7
2017-Sep-13 13:15N 46°18' W 084°13'2 6.6
2017-Sep-13 13:00N 46°19' W 084°13'4 8.1
2017-Sep-13 12:29N 46°24' W 084°14'10 3.2
2017-Sep-13 09:18N 46°29' W 084°26'3 8.3
2017-Sep-13 08:57N 46°27' W 084°30'4 9.7
2017-Sep-13 08:30N 46°29' W 084°36'22412.8
2017-Sep-12 14:59N 47°26' W 089°53'613.2
2017-Sep-12 14:30N 47°25' W 090°02'1313.3
2017-Sep-12 13:33N 47°23' W 090°21'294 6.3
2017-Sep-10 14:51N 45°43' W 083°40'1213.9
2017-Sep-10 14:00N 45°33' W 083°30'  
Track history (hours):
 
Tides and Currents Weather Stations Pressure Air Temp Water Temp Dewpoint Dewpoint Depression Visibility Wind Speed Wind Dir Waves Ship Positions

Algoma Guardian

Last reported at 2017-Sep-19 18:00 UTC. Time now 2017-Sep-21 04:59 UTC.
Position N 48°30' W 064°00'.

Length 222 m; draft 8.1 m.

Type: Cargo ship. MMSI: 316018031.

Wind from 210 at 20 knots

Barometer 1016.7 mb
Air temperature 16.0 ° C
Visibility: greater than 0.1 NM

Date/timePositionNaut miles runAvg speedWind from/ knotsBaromVisibWave heightAir tempDewpointWater temp
2017-Sep-19 18:00N 48°30' W 064°00'26610.6 210 / 201016.7 0.1 16.0
2017-Sep-18 17:00N 47°24' W 070°24'172 4.5 100 / 101017.2 5.4 15.0
2017-Sep-17 02:29N 45°30' W 073°31'1 0.8
2017-Sep-17 01:48N 45°30' W 073°31'2 1.7
2017-Sep-17 00:46N 45°28' W 073°30'1 3.5
2017-Sep-17 00:31N 45°27' W 073°30'3 4.4
2017-Sep-16 23:55N 45°25' W 073°32'2 3.8
2017-Sep-16 23:30N 45°24' W 073°34'0 0.3
2017-Sep-16 23:00N 45°24' W 073°34'1 2.4
2017-Sep-16 22:30N 45°24' W 073°36'3 5.5
2017-Sep-16 22:00N 45°25' W 073°40'3 5.7
2017-Sep-16 21:30N 45°24' W 073°44'510.8
2017-Sep-16 21:00N 45°22' W 073°50'4 8.3
2017-Sep-16 20:30N 45°19' W 073°55'0 0.4
2017-Sep-16 20:01N 45°19' W 073°55'1 1.5
2017-Sep-16 19:31N 45°18' W 073°56'0 0.3
2017-Sep-16 19:01N 45°18' W 073°56'1 2.5
2017-Sep-16 18:27N 45°17' W 073°57'3 5.8
2017-Sep-16 17:59N 45°15' W 073°59'2010.3
2017-Sep-16 16:02N 45°08' W 074°25'111.6
2017-Sep-16 15:58N 45°08' W 074°27'  
2017-Sep-13 19:02N 45°26' W 083°14'013.0
2017-Sep-13 19:00N 45°27' W 083°14'613.1
2017-Sep-13 18:30N 45°31' W 083°20'713.3
2017-Sep-13 18:00N 45°36' W 083°27'713.4
2017-Sep-13 17:30N 45°41' W 083°33'713.4
2017-Sep-13 16:59N 45°47' W 083°40'613.4
2017-Sep-13 16:30N 45°51' W 083°46'713.2
2017-Sep-13 15:59N 45°56' W 083°53'611.5
2017-Sep-13 15:26N 46°02' W 083°56'511.0
2017-Sep-13 14:57N 46°06' W 084°01'511.3
2017-Sep-13 14:30N 46°10' W 084°05'4 8.6
2017-Sep-13 14:00N 46°13' W 084°10'5 6.7
2017-Sep-13 13:15N 46°18' W 084°13'2 6.6
2017-Sep-13 13:00N 46°19' W 084°13'4 8.1
2017-Sep-13 12:29N 46°24' W 084°14'10 3.2
2017-Sep-13 09:18N 46°29' W 084°26'3 8.3
2017-Sep-13 08:57N 46°27' W 084°30'4 9.7
2017-Sep-13 08:30N 46°29' W 084°36'22412.8
2017-Sep-12 14:59N 47°26' W 089°53'613.2
2017-Sep-12 14:30N 47°25' W 090°02'1313.3
2017-Sep-12 13:33N 47°23' W 090°21'294 6.3
2017-Sep-10 14:51N 45°43' W 083°40'1213.9
2017-Sep-10 14:00N 45°33' W 083°30'  

Dump ship's entire track history